createdAt,value
2019-02-01T00:05:42.988Z,1.43
2019-02-01T00:15:48.101Z,1.80
2019-02-01T00:25:53.224Z,1.60
2019-02-01T00:35:58.341Z,1.70
2019-02-01T00:46:03.703Z,1.70
2019-02-01T00:56:08.816Z,1.60
2019-02-01T01:06:13.929Z,1.80
2019-02-01T01:16:19.113Z,1.60
2019-02-01T01:26:24.225Z,1.60
2019-02-01T01:36:29.327Z,1.30
2019-02-01T01:46:34.446Z,1.70
2019-02-01T01:56:39.543Z,1.40
2019-02-01T04:03:43.782Z,1.50
2019-02-01T04:13:48.895Z,1.50
2019-02-01T04:23:54.005Z,1.83
2019-02-01T04:33:59.127Z,1.40
2019-02-01T04:44:04.270Z,1.70
2019-02-01T04:54:09.814Z,1.43
2019-02-01T05:04:14.942Z,1.40
2019-02-01T05:14:20.049Z,1.70
2019-02-01T05:24:25.157Z,1.53
2019-02-01T05:34:30.309Z,1.90
2019-02-01T05:44:35.432Z,1.73
2019-02-01T05:54:40.555Z,1.40
2019-02-01T06:04:45.664Z,1.60
2019-02-01T06:14:50.773Z,1.80
2019-02-01T06:24:55.886Z,2.00
2019-02-01T06:35:00.987Z,1.40
2019-02-01T06:45:08.187Z,1.53
2019-02-01T06:55:13.298Z,1.70
2019-02-01T07:05:23.876Z,1.57
2019-02-01T07:15:59.984Z,1.70
2019-02-01T07:26:29.361Z,1.80
2019-02-01T07:36:35.191Z,1.50
2019-02-01T07:46:40.405Z,1.60
2019-02-01T07:56:45.519Z,1.50
2019-02-01T08:06:50.638Z,1.70
2019-02-01T08:16:55.746Z,1.90
2019-02-01T08:27:00.859Z,2.00
2019-02-01T08:37:07.166Z,1.93
2019-02-01T08:47:12.286Z,1.50
2019-02-01T08:57:17.414Z,1.80
2019-02-01T09:07:22.591Z,1.80
2019-02-01T09:17:28.160Z,2.00
2019-02-01T09:27:33.389Z,1.67
2019-02-01T09:37:38.621Z,1.83
2019-02-01T09:47:44.702Z,1.93
2019-02-01T09:57:49.922Z,1.63
2019-02-01T10:07:55.035Z,2.00
2019-02-01T10:18:00.149Z,1.50
2019-02-01T10:28:05.319Z,1.77
2019-02-01T10:38:10.449Z,1.70
2019-02-01T10:48:15.589Z,1.70
2019-02-01T10:58:20.694Z,1.73
2019-02-01T11:08:25.811Z,1.90
2019-02-01T11:18:30.922Z,1.40
2019-02-01T11:28:36.131Z,1.70
2019-02-01T11:38:41.293Z,1.50
2019-02-01T11:48:46.402Z,1.47
2019-02-01T11:58:51.518Z,1.70
2019-02-01T12:08:56.629Z,2.00
2019-02-01T12:19:01.735Z,1.67
2019-02-01T12:29:07.097Z,2.30
2019-02-01T12:39:12.233Z,1.77
2019-02-01T12:49:17.513Z,2.10
2019-02-01T12:59:22.628Z,1.70
2019-02-01T13:09:27.752Z,1.83
2019-02-01T13:19:32.967Z,1.40
2019-02-01T13:29:38.077Z,1.77
2019-02-01T13:39:43.504Z,2.13
2019-02-01T13:49:48.610Z,1.80
2019-02-01T13:59:53.712Z,1.83
2019-02-01T14:10:05.924Z,1.70
2019-02-01T14:20:06.703Z,1.77
2019-02-01T14:30:18.566Z,1.90
2019-02-01T14:40:23.712Z,1.53
2019-02-01T14:50:28.818Z,1.90
2019-02-01T15:00:33.926Z,1.80
2019-02-01T15:10:39.038Z,1.60
2019-02-01T15:20:44.165Z,1.80
2019-02-01T15:30:49.273Z,1.70
2019-02-01T15:40:54.404Z,1.70
2019-02-01T15:51:00.152Z,1.70
2019-02-01T16:01:05.968Z,1.73
2019-02-01T16:11:11.155Z,1.60
2019-02-01T16:21:16.298Z,1.90
2019-02-01T16:31:21.496Z,2.00
2019-02-01T16:41:26.800Z,1.80
2019-02-01T16:51:32.489Z,1.77
2019-02-01T17:01:37.628Z,2.00
2019-02-01T17:11:43.126Z,2.27
2019-02-01T17:21:48.246Z,2.10
2019-02-01T17:31:53.666Z,2.20
2019-02-01T17:41:59.107Z,2.30
2019-02-01T17:52:05.825Z,2.33
2019-02-01T18:02:10.969Z,2.00
2019-02-01T18:12:16.079Z,2.07
2019-02-01T18:22:21.236Z,2.40
2019-02-01T18:32:26.456Z,2.30
2019-02-01T18:42:31.585Z,1.90
2019-02-01T18:52:36.702Z,2.17
2019-02-01T19:02:41.858Z,2.77
2019-02-01T19:12:48.055Z,2.00
2019-02-01T19:22:53.174Z,2.17
2019-02-01T19:32:58.374Z,2.53
2019-02-01T19:43:03.507Z,2.40
2019-02-01T19:53:08.611Z,2.13
2019-02-01T20:03:13.846Z,2.10
2019-02-01T20:13:18.943Z,2.63
2019-02-01T20:23:24.059Z,2.20
2019-02-01T20:33:29.197Z,2.30
2019-02-01T20:43:34.325Z,2.20
2019-02-01T20:53:41.062Z,2.47
2019-02-01T21:03:46.259Z,2.30
2019-02-01T21:13:51.387Z,2.37
2019-02-01T21:23:56.483Z,2.10
2019-02-01T21:34:02.007Z,2.37
2019-02-01T21:44:07.225Z,2.30
2019-02-01T21:54:12.867Z,2.50
2019-02-01T22:04:19.879Z,2.63
2019-02-01T22:14:37.189Z,2.60
2019-02-01T22:24:44.398Z,2.47
2019-02-01T22:34:52.261Z,2.67
2019-02-01T22:44:57.762Z,2.40
2019-02-01T22:55:03.387Z,2.50
2019-02-01T23:05:13.186Z,3.07
2019-02-01T23:15:19.326Z,2.80
2019-02-01T23:25:24.498Z,2.87
2019-02-01T23:35:29.611Z,2.70
2019-02-01T23:45:34.751Z,3.20
2019-02-01T23:55:40.961Z,3.50
